sensor_id;sensor_type;location;lat;lon;timestamp;P1;durP1;ratioP1;P2;durP2;ratioP2
76475;SDS011;65308;50.078;14.854;2023-10-19T00:01:22;12.57;;;6.45;;
76475;SDS011;65308;50.078;14.854;2023-10-19T00:03:50;10.45;;;5.50;;
76475;SDS011;65308;50.078;14.854;2023-10-19T00:06:18;11.25;;;5.32;;
76475;SDS011;65308;50.078;14.854;2023-10-19T00:08:43;10.23;;;5.70;;
76475;SDS011;65308;50.078;14.854;2023-10-19T00:11:10;12.65;;;6.13;;
76475;SDS011;65308;50.078;14.854;2023-10-19T00:13:48;11.23;;;6.00;;
76475;SDS011;65308;50.078;14.854;2023-10-19T00:16:15;11.00;;;5.90;;
76475;SDS011;65308;50.078;14.854;2023-10-19T00:18:42;13.25;;;6.57;;
76475;SDS011;65308;50.078;14.854;2023-10-19T00:21:09;14.93;;;6.55;;
76475;SDS011;65308;50.078;14.854;2023-10-19T00:23:44;18.05;;;7.38;;
76475;SDS011;65308;50.078;14.854;2023-10-19T00:26:15;19.75;;;7.95;;
76475;SDS011;65308;50.078;14.854;2023-10-19T00:28:44;13.65;;;7.25;;
76475;SDS011;65308;50.078;14.854;2023-10-19T00:31:18;12.95;;;6.05;;
76475;SDS011;65308;50.078;14.854;2023-10-19T00:33:46;14.57;;;7.68;;
76475;SDS011;65308;50.078;14.854;2023-10-19T00:36:12;14.57;;;6.47;;
76475;SDS011;65308;50.078;14.854;2023-10-19T00:38:40;11.43;;;5.85;;
76475;SDS011;65308;50.078;14.854;2023-10-19T00:41:13;12.63;;;5.95;;
76475;SDS011;65308;50.078;14.854;2023-10-19T00:43:45;17.17;;;6.15;;
76475;SDS011;65308;50.078;14.854;2023-10-19T00:46:15;11.80;;;6.10;;
76475;SDS011;65308;50.078;14.854;2023-10-19T00:48:49;12.80;;;6.32;;
76475;SDS011;65308;50.078;14.854;2023-10-19T00:51:20;11.73;;;5.90;;
76475;SDS011;65308;50.078;14.854;2023-10-19T00:54:04;12.05;;;5.75;;
76475;SDS011;65308;50.078;14.854;2023-10-19T00:56:35;12.45;;;5.95;;
76475;SDS011;65308;50.078;14.854;2023-10-19T00:59:06;12.65;;;5.72;;
76475;SDS011;65308;50.078;14.854;2023-10-19T01:01:39;8.73;;;5.13;;
76475;SDS011;65308;50.078;14.854;2023-10-19T01:04:10;10.38;;;5.35;;
76475;SDS011;65308;50.078;14.854;2023-10-19T01:06:39;14.07;;;6.32;;
76475;SDS011;65308;50.078;14.854;2023-10-19T01:09:09;12.63;;;5.65;;
76475;SDS011;65308;50.078;14.854;2023-10-19T01:11:39;11.98;;;5.93;;
76475;SDS011;65308;50.078;14.854;2023-10-19T01:14:19;10.93;;;5.97;;
76475;SDS011;65308;50.078;14.854;2023-10-19T01:16:47;12.07;;;5.65;;
76475;SDS011;65308;50.078;14.854;2023-10-19T01:21:43;10.15;;;4.82;;
76475;SDS011;65308;50.078;14.854;2023-10-19T01:24:17;9.68;;;5.53;;
76475;SDS011;65308;50.078;14.854;2023-10-19T01:26:46;11.35;;;5.80;;
76475;SDS011;65308;50.078;14.854;2023-10-19T01:29:14;11.25;;;4.82;;
76475;SDS011;65308;50.078;14.854;2023-10-19T01:31:42;9.98;;;5.53;;
76475;SDS011;65308;50.078;14.854;2023-10-19T01:34:21;9.05;;;4.57;;
76475;SDS011;65308;50.078;14.854;2023-10-19T01:36:48;11.20;;;5.47;;
76475;SDS011;65308;50.078;14.854;2023-10-19T01:39:17;10.02;;;5.10;;
76475;SDS011;65308;50.078;14.854;2023-10-19T01:41:44;12.57;;;5.63;;
76475;SDS011;65308;50.078;14.854;2023-10-19T01:44:15;12.70;;;6.03;;
76475;SDS011;65308;50.078;14.854;2023-10-19T01:46:46;11.23;;;5.47;;
76475;SDS011;65308;50.078;14.854;2023-10-19T01:49:13;13.30;;;5.60;;
76475;SDS011;65308;50.078;14.854;2023-10-19T01:51:39;9.70;;;5.55;;
76475;SDS011;65308;50.078;14.854;2023-10-19T01:54:08;11.25;;;5.68;;
76475;SDS011;65308;50.078;14.854;2023-10-19T01:56:36;13.75;;;5.93;;
76475;SDS011;65308;50.078;14.854;2023-10-19T01:59:03;12.52;;;5.25;;
76475;SDS011;65308;50.078;14.854;2023-10-19T02:01:30;11.98;;;5.90;;
76475;SDS011;65308;50.078;14.854;2023-10-19T02:03:58;8.55;;;4.90;;
76475;SDS011;65308;50.078;14.854;2023-10-19T02:06:25;10.68;;;6.00;;
76475;SDS011;65308;50.078;14.854;2023-10-19T02:09:00;10.75;;;5.47;;
76475;SDS011;65308;50.078;14.854;2023-10-19T02:11:36;9.57;;;5.65;;
76475;SDS011;65308;50.078;14.854;2023-10-19T02:14:06;10.20;;;5.22;;
76475;SDS011;65308;50.078;14.854;2023-10-19T02:16:39;9.48;;;4.93;;
76475;SDS011;65308;50.078;14.854;2023-10-19T02:19:06;11.60;;;5.30;;
76475;SDS011;65308;50.078;14.854;2023-10-19T02:21:31;11.10;;;5.65;;
76475;SDS011;65308;50.078;14.854;2023-10-19T02:24:03;10.00;;;5.50;;
76475;SDS011;65308;50.078;14.854;2023-10-19T02:26:29;12.23;;;5.38;;
76475;SDS011;65308;50.078;14.854;2023-10-19T02:28:58;10.00;;;4.97;;
76475;SDS011;65308;50.078;14.854;2023-10-19T02:31:24;11.88;;;6.07;;
76475;SDS011;65308;50.078;14.854;2023-10-19T02:33:52;13.73;;;5.80;;
76475;SDS011;65308;50.078;14.854;2023-10-19T02:36:24;9.73;;;5.00;;
76475;SDS011;65308;50.078;14.854;2023-10-19T02:38:53;7.78;;;4.78;;
76475;SDS011;65308;50.078;14.854;2023-10-19T02:41:19;9.95;;;6.03;;
76475;SDS011;65308;50.078;14.854;2023-10-19T02:43:46;10.70;;;5.63;;
76475;SDS011;65308;50.078;14.854;2023-10-19T02:46:17;14.20;;;6.57;;
76475;SDS011;65308;50.078;14.854;2023-10-19T02:48:45;15.38;;;7.10;;
76475;SDS011;65308;50.078;14.854;2023-10-19T02:51:12;12.02;;;6.43;;
76475;SDS011;65308;50.078;14.854;2023-10-19T02:53:39;11.38;;;6.22;;
76475;SDS011;65308;50.078;14.854;2023-10-19T02:56:11;10.93;;;5.68;;
76475;SDS011;65308;50.078;14.854;2023-10-19T02:58:41;11.18;;;5.47;;
76475;SDS011;65308;50.078;14.854;2023-10-19T03:01:14;11.88;;;6.28;;
76475;SDS011;65308;50.078;14.854;2023-10-19T03:03:46;9.52;;;5.43;;
76475;SDS011;65308;50.078;14.854;2023-10-19T03:06:14;9.75;;;5.70;;
76475;SDS011;65308;50.078;14.854;2023-10-19T03:08:45;10.23;;;5.63;;
76475;SDS011;65308;50.078;14.854;2023-10-19T03:11:11;10.60;;;5.85;;
76475;SDS011;65308;50.078;14.854;2023-10-19T03:13:39;11.23;;;5.63;;
76475;SDS011;65308;50.078;14.854;2023-10-19T03:16:06;9.45;;;5.43;;
76475;SDS011;65308;50.078;14.854;2023-10-19T03:18:35;14.20;;;5.95;;
76475;SDS011;65308;50.078;14.854;2023-10-19T03:21:01;10.88;;;5.35;;
76475;SDS011;65308;50.078;14.854;2023-10-19T03:23:28;8.90;;;5.38;;
76475;SDS011;65308;50.078;14.854;2023-10-19T03:25:54;12.45;;;6.15;;
76475;SDS011;65308;50.078;14.854;2023-10-19T03:28:35;11.88;;;5.70;;
76475;SDS011;65308;50.078;14.854;2023-10-19T03:31:03;9.75;;;5.35;;
76475;SDS011;65308;50.078;14.854;2023-10-19T03:33:30;11.35;;;6.10;;
76475;SDS011;65308;50.078;14.854;2023-10-19T03:35:59;9.65;;;6.13;;
76475;SDS011;65308;50.078;14.854;2023-10-19T03:38:26;9.65;;;5.68;;
76475;SDS011;65308;50.078;14.854;2023-10-19T03:40:59;12.02;;;7.03;;
76475;SDS011;65308;50.078;14.854;2023-10-19T03:43:32;15.38;;;7.32;;
76475;SDS011;65308;50.078;14.854;2023-10-19T03:46:01;12.20;;;6.50;;
76475;SDS011;65308;50.078;14.854;2023-10-19T03:48:39;14.02;;;6.28;;
76475;SDS011;65308;50.078;14.854;2023-10-19T03:51:08;11.82;;;6.90;;
76475;SDS011;65308;50.078;14.854;2023-10-19T03:53:37;13.38;;;6.80;;
76475;SDS011;65308;50.078;14.854;2023-10-19T03:56:09;12.48;;;7.00;;
76475;SDS011;65308;50.078;14.854;2023-10-19T03:58:38;14.63;;;6.70;;
76475;SDS011;65308;50.078;14.854;2023-10-19T04:01:08;11.45;;;6.18;;
76475;SDS011;65308;50.078;14.854;2023-10-19T04:06:02;11.52;;;6.45;;
76475;SDS011;65308;50.078;14.854;2023-10-19T04:08:32;11.25;;;6.40;;
76475;SDS011;65308;50.078;14.854;2023-10-19T04:11:02;12.07;;;6.35;;
76475;SDS011;65308;50.078;14.854;2023-10-19T04:13:36;11.25;;;5.93;;
76475;SDS011;65308;50.078;14.854;2023-10-19T04:16:04;12.32;;;6.80;;
76475;SDS011;65308;50.078;14.854;2023-10-19T04:18:33;10.25;;;6.22;;
76475;SDS011;65308;50.078;14.854;2023-10-19T04:21:03;13.35;;;6.22;;
76475;SDS011;65308;50.078;14.854;2023-10-19T04:23:30;12.40;;;6.68;;
76475;SDS011;65308;50.078;14.854;2023-10-19T04:26:00;11.45;;;6.43;;
76475;SDS011;65308;50.078;14.854;2023-10-19T04:28:30;16.65;;;7.30;;
76475;SDS011;65308;50.078;14.854;2023-10-19T04:31:03;12.57;;;6.82;;
76475;SDS011;65308;50.078;14.854;2023-10-19T04:33:31;14.10;;;7.03;;
76475;SDS011;65308;50.078;14.854;2023-10-19T04:36:00;10.52;;;6.25;;
76475;SDS011;65308;50.078;14.854;2023-10-19T04:38:27;13.85;;;6.60;;
76475;SDS011;65308;50.078;14.854;2023-10-19T04:41:04;12.60;;;6.72;;
76475;SDS011;65308;50.078;14.854;2023-10-19T04:43:33;14.35;;;7.97;;
76475;SDS011;65308;50.078;14.854;2023-10-19T04:46:04;31.85;;;13.80;;
76475;SDS011;65308;50.078;14.854;2023-10-19T04:48:36;20.20;;;9.68;;
76475;SDS011;65308;50.078;14.854;2023-10-19T04:51:05;15.60;;;7.90;;
76475;SDS011;65308;50.078;14.854;2023-10-19T04:53:34;11.73;;;6.65;;
76475;SDS011;65308;50.078;14.854;2023-10-19T04:56:02;14.88;;;7.70;;
76475;SDS011;65308;50.078;14.854;2023-10-19T04:58:31;13.52;;;7.28;;
76475;SDS011;65308;50.078;14.854;2023-10-19T05:00:58;11.02;;;6.15;;
76475;SDS011;65308;50.078;14.854;2023-10-19T05:03:25;11.10;;;7.03;;
76475;SDS011;65308;50.078;14.854;2023-10-19T05:05:53;12.60;;;6.72;;
76475;SDS011;65308;50.078;14.854;2023-10-19T05:08:21;10.32;;;6.47;;
76475;SDS011;65308;50.078;14.854;2023-10-19T05:10:51;12.40;;;6.72;;
76475;SDS011;65308;50.078;14.854;2023-10-19T05:13:20;10.82;;;6.45;;
76475;SDS011;65308;50.078;14.854;2023-10-19T05:15:47;10.70;;;6.60;;
76475;SDS011;65308;50.078;14.854;2023-10-19T05:21:39;16.67;;;8.10;;
76475;SDS011;65308;50.078;14.854;2023-10-19T05:24:06;12.77;;;6.78;;
76475;SDS011;65308;50.078;14.854;2023-10-19T05:26:33;13.57;;;7.00;;
76475;SDS011;65308;50.078;14.854;2023-10-19T05:29:00;11.98;;;6.68;;
76475;SDS011;65308;50.078;14.854;2023-10-19T05:31:27;12.68;;;6.53;;
76475;SDS011;65308;50.078;14.854;2023-10-19T05:33:56;14.45;;;7.82;;
76475;SDS011;65308;50.078;14.854;2023-10-19T05:36:23;11.80;;;7.15;;
76475;SDS011;65308;50.078;14.854;2023-10-19T05:38:51;15.27;;;7.20;;
76475;SDS011;65308;50.078;14.854;2023-10-19T05:41:18;14.15;;;7.13;;
76475;SDS011;65308;50.078;14.854;2023-10-19T05:43:46;12.05;;;7.07;;
76475;SDS011;65308;50.078;14.854;2023-10-19T05:46:13;14.63;;;8.02;;
76475;SDS011;65308;50.078;14.854;2023-10-19T05:48:43;12.90;;;7.82;;
76475;SDS011;65308;50.078;14.854;2023-10-19T05:51:10;20.85;;;10.27;;
76475;SDS011;65308;50.078;14.854;2023-10-19T05:53:39;21.52;;;10.38;;
76475;SDS011;65308;50.078;14.854;2023-10-19T05:56:07;17.75;;;10.63;;
76475;SDS011;65308;50.078;14.854;2023-10-19T05:58:35;16.13;;;9.82;;
76475;SDS011;65308;50.078;14.854;2023-10-19T06:01:02;17.48;;;9.07;;
76475;SDS011;65308;50.078;14.854;2023-10-19T06:03:30;13.43;;;8.55;;
76475;SDS011;65308;50.078;14.854;2023-10-19T06:05:56;15.70;;;9.57;;
76475;SDS011;65308;50.078;14.854;2023-10-19T06:08:23;14.60;;;7.85;;
76475;SDS011;65308;50.078;14.854;2023-10-19T06:10:50;14.07;;;8.52;;
76475;SDS011;65308;50.078;14.854;2023-10-19T06:15:47;13.70;;;8.10;;
76475;SDS011;65308;50.078;14.854;2023-10-19T06:18:14;15.65;;;7.68;;
76475;SDS011;65308;50.078;14.854;2023-10-19T06:20:42;14.60;;;8.02;;
76475;SDS011;65308;50.078;14.854;2023-10-19T06:23:10;14.20;;;7.70;;
76475;SDS011;65308;50.078;14.854;2023-10-19T06:25:37;15.15;;;7.82;;
76475;SDS011;65308;50.078;14.854;2023-10-19T06:28:04;12.80;;;7.32;;
76475;SDS011;65308;50.078;14.854;2023-10-19T06:30:33;12.88;;;7.10;;
76475;SDS011;65308;50.078;14.854;2023-10-19T06:33:02;13.65;;;7.28;;
76475;SDS011;65308;50.078;14.854;2023-10-19T06:35:30;14.48;;;7.13;;
76475;SDS011;65308;50.078;14.854;2023-10-19T06:37:58;15.07;;;7.70;;
76475;SDS011;65308;50.078;14.854;2023-10-19T06:42:54;15.48;;;7.25;;
76475;SDS011;65308;50.078;14.854;2023-10-19T06:45:21;12.45;;;7.22;;
76475;SDS011;65308;50.078;14.854;2023-10-19T06:47:51;14.18;;;7.88;;
76475;SDS011;65308;50.078;14.854;2023-10-19T06:50:19;11.43;;;7.15;;
76475;SDS011;65308;50.078;14.854;2023-10-19T06:52:47;15.82;;;8.15;;
76475;SDS011;65308;50.078;14.854;2023-10-19T06:55:15;13.85;;;7.63;;
76475;SDS011;65308;50.078;14.854;2023-10-19T06:57:47;13.73;;;8.05;;
76475;SDS011;65308;50.078;14.854;2023-10-19T07:00:15;16.77;;;7.70;;
76475;SDS011;65308;50.078;14.854;2023-10-19T07:02:44;14.13;;;8.27;;
76475;SDS011;65308;50.078;14.854;2023-10-19T07:05:14;13.40;;;8.15;;
76475;SDS011;65308;50.078;14.854;2023-10-19T07:07:43;11.65;;;7.32;;
76475;SDS011;65308;50.078;14.854;2023-10-19T07:10:11;14.32;;;8.13;;
76475;SDS011;65308;50.078;14.854;2023-10-19T07:12:40;16.83;;;8.73;;
76475;SDS011;65308;50.078;14.854;2023-10-19T07:15:09;14.75;;;8.32;;
76475;SDS011;65308;50.078;14.854;2023-10-19T07:17:39;14.23;;;7.65;;
76475;SDS011;65308;50.078;14.854;2023-10-19T07:20:06;12.55;;;7.47;;
76475;SDS011;65308;50.078;14.854;2023-10-19T07:22:48;14.25;;;8.20;;
76475;SDS011;65308;50.078;14.854;2023-10-19T07:25:15;13.75;;;8.07;;
76475;SDS011;65308;50.078;14.854;2023-10-19T07:27:45;14.32;;;7.75;;
76475;SDS011;65308;50.078;14.854;2023-10-19T07:30:12;17.95;;;7.95;;
76475;SDS011;65308;50.078;14.854;2023-10-19T07:32:40;13.02;;;7.75;;
76475;SDS011;65308;50.078;14.854;2023-10-19T07:35:08;12.30;;;7.55;;
76475;SDS011;65308;50.078;14.854;2023-10-19T07:37:35;13.30;;;7.55;;
76475;SDS011;65308;50.078;14.854;2023-10-19T07:40:03;12.05;;;8.20;;
76475;SDS011;65308;50.078;14.854;2023-10-19T07:42:31;14.32;;;7.90;;
76475;SDS011;65308;50.078;14.854;2023-10-19T07:45:00;16.35;;;8.88;;
76475;SDS011;65308;50.078;14.854;2023-10-19T07:47:26;19.33;;;8.80;;
76475;SDS011;65308;50.078;14.854;2023-10-19T07:49:53;14.88;;;8.77;;
76475;SDS011;65308;50.078;14.854;2023-10-19T07:52:21;16.92;;;8.80;;
76475;SDS011;65308;50.078;14.854;2023-10-19T07:54:48;14.82;;;8.43;;
76475;SDS011;65308;50.078;14.854;2023-10-19T07:57:17;15.27;;;8.18;;
76475;SDS011;65308;50.078;14.854;2023-10-19T07:59:45;14.25;;;8.55;;
76475;SDS011;65308;50.078;14.854;2023-10-19T08:05:52;15.20;;;8.88;;
76475;SDS011;65308;50.078;14.854;2023-10-19T08:08:20;16.67;;;8.00;;
76475;SDS011;65308;50.078;14.854;2023-10-19T08:10:49;15.00;;;8.45;;
76475;SDS011;65308;50.078;14.854;2023-10-19T08:13:16;13.48;;;8.45;;
76475;SDS011;65308;50.078;14.854;2023-10-19T08:15:43;13.48;;;8.10;;
76475;SDS011;65308;50.078;14.854;2023-10-19T08:18:10;14.73;;;8.43;;
76475;SDS011;65308;50.078;14.854;2023-10-19T08:20:37;14.07;;;8.23;;
76475;SDS011;65308;50.078;14.854;2023-10-19T08:23:06;15.35;;;8.63;;
76475;SDS011;65308;50.078;14.854;2023-10-19T08:25:33;15.13;;;9.00;;
76475;SDS011;65308;50.078;14.854;2023-10-19T08:28:00;14.95;;;8.48;;
76475;SDS011;65308;50.078;14.854;2023-10-19T08:30:27;13.77;;;7.82;;
76475;SDS011;65308;50.078;14.854;2023-10-19T08:32:54;20.50;;;7.90;;
76475;SDS011;65308;50.078;14.854;2023-10-19T08:35:23;18.15;;;8.82;;
76475;SDS011;65308;50.078;14.854;2023-10-19T08:37:52;16.63;;;8.98;;
76475;SDS011;65308;50.078;14.854;2023-10-19T08:40:21;16.15;;;9.02;;
76475;SDS011;65308;50.078;14.854;2023-10-19T08:42:48;17.52;;;9.63;;
76475;SDS011;65308;50.078;14.854;2023-10-19T08:45:15;16.52;;;9.05;;
76475;SDS011;65308;50.078;14.854;2023-10-19T08:47:43;17.02;;;9.20;;
76475;SDS011;65308;50.078;14.854;2023-10-19T08:50:15;14.77;;;7.88;;
76475;SDS011;65308;50.078;14.854;2023-10-19T08:52:46;14.32;;;9.15;;
76475;SDS011;65308;50.078;14.854;2023-10-19T08:55:14;16.00;;;8.63;;
76475;SDS011;65308;50.078;14.854;2023-10-19T08:57:43;16.67;;;8.55;;
76475;SDS011;65308;50.078;14.854;2023-10-19T09:00:14;13.88;;;8.75;;
76475;SDS011;65308;50.078;14.854;2023-10-19T09:02:43;14.57;;;9.05;;
76475;SDS011;65308;50.078;14.854;2023-10-19T09:05:10;17.73;;;9.65;;
76475;SDS011;65308;50.078;14.854;2023-10-19T09:07:45;13.98;;;8.32;;
76475;SDS011;65308;50.078;14.854;2023-10-19T09:10:15;14.27;;;8.95;;
76475;SDS011;65308;50.078;14.854;2023-10-19T09:12:44;17.50;;;9.32;;
76475;SDS011;65308;50.078;14.854;2023-10-19T09:15:18;15.25;;;9.38;;
76475;SDS011;65308;50.078;14.854;2023-10-19T09:17:48;16.25;;;8.75;;
76475;SDS011;65308;50.078;14.854;2023-10-19T09:20:19;15.85;;;9.82;;
76475;SDS011;65308;50.078;14.854;2023-10-19T09:22:52;13.80;;;8.85;;
76475;SDS011;65308;50.078;14.854;2023-10-19T09:25:27;14.57;;;9.50;;
76475;SDS011;65308;50.078;14.854;2023-10-19T09:27:56;17.20;;;9.32;;
76475;SDS011;65308;50.078;14.854;2023-10-19T09:30:23;14.90;;;9.02;;
76475;SDS011;65308;50.078;14.854;2023-10-19T09:32:51;14.00;;;8.68;;
76475;SDS011;65308;50.078;14.854;2023-10-19T09:35:19;17.35;;;9.27;;
76475;SDS011;65308;50.078;14.854;2023-10-19T09:37:46;17.42;;;9.38;;
76475;SDS011;65308;50.078;14.854;2023-10-19T09:40:14;14.90;;;9.32;;
76475;SDS011;65308;50.078;14.854;2023-10-19T09:42:42;17.05;;;9.30;;
76475;SDS011;65308;50.078;14.854;2023-10-19T09:45:14;14.70;;;8.40;;
76475;SDS011;65308;50.078;14.854;2023-10-19T09:47:47;16.75;;;9.32;;
76475;SDS011;65308;50.078;14.854;2023-10-19T09:50:17;15.35;;;9.57;;
76475;SDS011;65308;50.078;14.854;2023-10-19T09:52:44;15.05;;;9.93;;
76475;SDS011;65308;50.078;14.854;2023-10-19T09:55:12;16.85;;;9.60;;
76475;SDS011;65308;50.078;14.854;2023-10-19T09:57:49;16.52;;;9.07;;
76475;SDS011;65308;50.078;14.854;2023-10-19T10:00:21;15.90;;;9.85;;
76475;SDS011;65308;50.078;14.854;2023-10-19T10:02:49;15.32;;;9.25;;
76475;SDS011;65308;50.078;14.854;2023-10-19T10:08:29;17.40;;;9.93;;
76475;SDS011;65308;50.078;14.854;2023-10-19T10:10:57;17.30;;;10.27;;
76475;SDS011;65308;50.078;14.854;2023-10-19T10:13:37;16.52;;;10.35;;
76475;SDS011;65308;50.078;14.854;2023-10-19T10:16:06;17.40;;;10.52;;
76475;SDS011;65308;50.078;14.854;2023-10-19T10:18:34;17.23;;;10.15;;
76475;SDS011;65308;50.078;14.854;2023-10-19T10:21:04;19.13;;;11.55;;
76475;SDS011;65308;50.078;14.854;2023-10-19T10:23:35;16.00;;;9.85;;
76475;SDS011;65308;50.078;14.854;2023-10-19T10:26:07;17.50;;;10.45;;
76475;SDS011;65308;50.078;14.854;2023-10-19T10:28:34;16.25;;;9.77;;
76475;SDS011;65308;50.078;14.854;2023-10-19T10:31:12;17.92;;;10.27;;
76475;SDS011;65308;50.078;14.854;2023-10-19T10:33:41;16.63;;;10.77;;
76475;SDS011;65308;50.078;14.854;2023-10-19T10:36:10;19.75;;;11.88;;
76475;SDS011;65308;50.078;14.854;2023-10-19T10:41:04;19.00;;;10.43;;
76475;SDS011;65308;50.078;14.854;2023-10-19T10:43:47;16.88;;;11.15;;
76475;SDS011;65308;50.078;14.854;2023-10-19T10:46:16;19.08;;;10.90;;
76475;SDS011;65308;50.078;14.854;2023-10-19T10:48:43;21.40;;;11.82;;
76475;SDS011;65308;50.078;14.854;2023-10-19T10:51:16;16.85;;;11.38;;
76475;SDS011;65308;50.078;14.854;2023-10-19T10:53:47;20.42;;;12.05;;
76475;SDS011;65308;50.078;14.854;2023-10-19T10:56:14;20.40;;;11.38;;
76475;SDS011;65308;50.078;14.854;2023-10-19T10:58:41;20.15;;;12.82;;
76475;SDS011;65308;50.078;14.854;2023-10-19T11:01:08;19.70;;;12.73;;
76475;SDS011;65308;50.078;14.854;2023-10-19T11:03:37;19.48;;;12.32;;
76475;SDS011;65308;50.078;14.854;2023-10-19T11:06:04;20.35;;;13.05;;
76475;SDS011;65308;50.078;14.854;2023-10-19T11:08:33;18.75;;;12.57;;
76475;SDS011;65308;50.078;14.854;2023-10-19T11:11:05;21.73;;;12.75;;
76475;SDS011;65308;50.078;14.854;2023-10-19T11:13:32;18.65;;;11.98;;
76475;SDS011;65308;50.078;14.854;2023-10-19T11:16:02;19.95;;;13.00;;
76475;SDS011;65308;50.078;14.854;2023-10-19T11:18:31;18.60;;;12.55;;
76475;SDS011;65308;50.078;14.854;2023-10-19T11:21:02;20.02;;;12.35;;
76475;SDS011;65308;50.078;14.854;2023-10-19T11:23:35;18.42;;;13.20;;
76475;SDS011;65308;50.078;14.854;2023-10-19T11:26:05;20.58;;;13.13;;
76475;SDS011;65308;50.078;14.854;2023-10-19T11:28:33;18.50;;;12.57;;
76475;SDS011;65308;50.078;14.854;2023-10-19T11:31:13;19.20;;;13.50;;
76475;SDS011;65308;50.078;14.854;2023-10-19T11:33:41;21.35;;;14.38;;
76475;SDS011;65308;50.078;14.854;2023-10-19T11:36:10;19.58;;;13.18;;
76475;SDS011;65308;50.078;14.854;2023-10-19T11:38:41;23.55;;;14.77;;
76475;SDS011;65308;50.078;14.854;2023-10-19T11:41:09;20.75;;;13.95;;
76475;SDS011;65308;50.078;14.854;2023-10-19T11:43:35;24.60;;;14.80;;
76475;SDS011;65308;50.078;14.854;2023-10-19T11:46:02;19.10;;;12.98;;
76475;SDS011;65308;50.078;14.854;2023-10-19T11:48:31;21.55;;;13.20;;
76475;SDS011;65308;50.078;14.854;2023-10-19T11:50:59;22.67;;;14.90;;
76475;SDS011;65308;50.078;14.854;2023-10-19T11:53:30;23.65;;;14.00;;
76475;SDS011;65308;50.078;14.854;2023-10-19T11:55:59;22.92;;;14.75;;
76475;SDS011;65308;50.078;14.854;2023-10-19T11:58:29;22.05;;;14.07;;
76475;SDS011;65308;50.078;14.854;2023-10-19T12:00:57;22.15;;;13.75;;
76475;SDS011;65308;50.078;14.854;2023-10-19T12:03:24;20.90;;;13.50;;
76475;SDS011;65308;50.078;14.854;2023-10-19T12:05:51;21.27;;;13.35;;
76475;SDS011;65308;50.078;14.854;2023-10-19T12:08:20;18.80;;;12.52;;
76475;SDS011;65308;50.078;14.854;2023-10-19T12:10:50;21.63;;;13.68;;
76475;SDS011;65308;50.078;14.854;2023-10-19T12:13:17;21.67;;;14.35;;
76475;SDS011;65308;50.078;14.854;2023-10-19T12:15:44;19.92;;;13.60;;
76475;SDS011;65308;50.078;14.854;2023-10-19T12:18:17;18.05;;;12.77;;
76475;SDS011;65308;50.078;14.854;2023-10-19T12:20:45;21.05;;;13.57;;
76475;SDS011;65308;50.078;14.854;2023-10-19T12:23:12;17.75;;;12.40;;
76475;SDS011;65308;50.078;14.854;2023-10-19T12:25:39;19.55;;;13.93;;
76475;SDS011;65308;50.078;14.854;2023-10-19T12:28:08;23.15;;;13.55;;
76475;SDS011;65308;50.078;14.854;2023-10-19T12:30:40;22.00;;;14.23;;
76475;SDS011;65308;50.078;14.854;2023-10-19T12:33:07;19.77;;;13.65;;
76475;SDS011;65308;50.078;14.854;2023-10-19T12:35:36;18.58;;;13.30;;
76475;SDS011;65308;50.078;14.854;2023-10-19T12:38:11;22.42;;;14.35;;
76475;SDS011;65308;50.078;14.854;2023-10-19T12:40:44;20.27;;;13.25;;
76475;SDS011;65308;50.078;14.854;2023-10-19T12:43:13;24.40;;;14.15;;
76475;SDS011;65308;50.078;14.854;2023-10-19T12:45:41;22.42;;;15.52;;
76475;SDS011;65308;50.078;14.854;2023-10-19T12:48:09;21.65;;;14.07;;
76475;SDS011;65308;50.078;14.854;2023-10-19T12:50:36;20.75;;;13.07;;
76475;SDS011;65308;50.078;14.854;2023-10-19T12:55:35;22.85;;;14.40;;
76475;SDS011;65308;50.078;14.854;2023-10-19T12:58:03;22.27;;;14.23;;
76475;SDS011;65308;50.078;14.854;2023-10-19T13:00:36;20.20;;;14.15;;
76475;SDS011;65308;50.078;14.854;2023-10-19T13:03:06;23.75;;;14.70;;
76475;SDS011;65308;50.078;14.854;2023-10-19T13:05:38;22.70;;;14.93;;
76475;SDS011;65308;50.078;14.854;2023-10-19T13:08:06;21.30;;;13.68;;
76475;SDS011;65308;50.078;14.854;2023-10-19T13:13:05;22.13;;;13.73;;
76475;SDS011;65308;50.078;14.854;2023-10-19T13:15:38;21.73;;;14.25;;
76475;SDS011;65308;50.078;14.854;2023-10-19T13:18:07;23.92;;;14.23;;
76475;SDS011;65308;50.078;14.854;2023-10-19T13:20:35;21.20;;;14.27;;
76475;SDS011;65308;50.078;14.854;2023-10-19T13:23:04;22.23;;;13.95;;
76475;SDS011;65308;50.078;14.854;2023-10-19T13:25:33;24.40;;;14.63;;
76475;SDS011;65308;50.078;14.854;2023-10-19T13:28:11;19.67;;;13.13;;
76475;SDS011;65308;50.078;14.854;2023-10-19T13:30:41;22.70;;;15.00;;
76475;SDS011;65308;50.078;14.854;2023-10-19T13:33:09;26.90;;;15.90;;
76475;SDS011;65308;50.078;14.854;2023-10-19T13:35:36;22.42;;;14.82;;
76475;SDS011;65308;50.078;14.854;2023-10-19T13:40:31;24.35;;;14.50;;
76475;SDS011;65308;50.078;14.854;2023-10-19T13:42:58;23.25;;;14.73;;
76475;SDS011;65308;50.078;14.854;2023-10-19T13:45:25;23.63;;;14.93;;
76475;SDS011;65308;50.078;14.854;2023-10-19T13:47:54;24.77;;;15.40;;
76475;SDS011;65308;50.078;14.854;2023-10-19T13:50:22;26.83;;;15.57;;
76475;SDS011;65308;50.078;14.854;2023-10-19T13:52:50;29.67;;;18.83;;
76475;SDS011;65308;50.078;14.854;2023-10-19T13:55:17;24.70;;;15.27;;
76475;SDS011;65308;50.078;14.854;2023-10-19T13:57:45;20.48;;;14.35;;
76475;SDS011;65308;50.078;14.854;2023-10-19T14:00:13;22.30;;;14.95;;
76475;SDS011;65308;50.078;14.854;2023-10-19T14:02:48;18.77;;;12.60;;
76475;SDS011;65308;50.078;14.854;2023-10-19T14:05:16;21.15;;;13.60;;
76475;SDS011;65308;50.078;14.854;2023-10-19T14:07:45;22.98;;;15.18;;
76475;SDS011;65308;50.078;14.854;2023-10-19T14:10:13;21.38;;;14.75;;
76475;SDS011;65308;50.078;14.854;2023-10-19T14:12:41;19.50;;;13.48;;
76475;SDS011;65308;50.078;14.854;2023-10-19T14:17:39;24.45;;;14.77;;
76475;SDS011;65308;50.078;14.854;2023-10-19T14:20:06;22.05;;;14.77;;
76475;SDS011;65308;50.078;14.854;2023-10-19T14:22:39;21.52;;;14.40;;
76475;SDS011;65308;50.078;14.854;2023-10-19T14:25:07;23.10;;;14.25;;
76475;SDS011;65308;50.078;14.854;2023-10-19T14:27:37;25.90;;;14.30;;
76475;SDS011;65308;50.078;14.854;2023-10-19T14:30:06;24.17;;;14.13;;
76475;SDS011;65308;50.078;14.854;2023-10-19T14:32:36;23.75;;;13.18;;
76475;SDS011;65308;50.078;14.854;2023-10-19T14:35:03;22.55;;;14.40;;
76475;SDS011;65308;50.078;14.854;2023-10-19T14:37:35;23.77;;;14.63;;
76475;SDS011;65308;50.078;14.854;2023-10-19T14:40:06;23.20;;;14.57;;
76475;SDS011;65308;50.078;14.854;2023-10-19T14:42:35;22.40;;;14.13;;
76475;SDS011;65308;50.078;14.854;2023-10-19T14:45:05;26.85;;;16.27;;
76475;SDS011;65308;50.078;14.854;2023-10-19T14:47:34;27.08;;;15.02;;
76475;SDS011;65308;50.078;14.854;2023-10-19T14:50:02;21.95;;;14.60;;
76475;SDS011;65308;50.078;14.854;2023-10-19T14:54:57;24.63;;;14.10;;
76475;SDS011;65308;50.078;14.854;2023-10-19T14:57:29;22.98;;;13.25;;
76475;SDS011;65308;50.078;14.854;2023-10-19T14:59:57;24.40;;;13.95;;
76475;SDS011;65308;50.078;14.854;2023-10-19T15:02:29;23.17;;;14.10;;
76475;SDS011;65308;50.078;14.854;2023-10-19T15:04:56;24.17;;;14.95;;